Terminal Aerodrome Forecast
Issued by NWS Wilmington, OH

Current Version | Previous Version | Graphics & Text | Print | Product List | Glossary On
Versions: 1 2 3 4 5 6 7 8 9 10 11 12 13 14 15 16 17
000
FTUS41 KILN 170900 AAA
TAFILN
TAF AMD
KILN 170921Z 1709/1806 26015G22KT P6SM VCSH SCT006 OVC012
      TEMPO 1709/1713 3SM BR OVC007
     FM171400 27012G18KT P6SM OVC015
     FM172200 27010KT P6SM OVC018=

USA.gov is the U.S. government's official web portal to all federal, state and local government web resources and services.